Ana Sayfa
METAR-TAF:

METAR-TAF

Havaalanları :

Kōchi, Japonya

Enlem: 33-32N, Boylam: 133-40E, yükseklik: 7 m

Güncel hava durumu gözlemi

Rapor saat 07:00 UTC de 49 dakika önce yapıldı.
Rüzgar batıdan 18 kt
Sıcaklık 15°C
Nem 31%
Basınç 1010 hPa
Görüş mesafesi 10 km veya daha fazla
3000 ft yükseklikte az bulutlu
parçalı çok bulutlu

METAR: RJOK 010700Z 28018KT 9999 FEW030 BKN/// 15/M02 Q1010

Saat: 16:49 (07:49 UTC)

Tahmin

Rapor saat 05:05 UTC de 2 saat ve 44 dakika önce yapıldı.
Ayın 01'si saat 06 UTC'den ayın 02'si saat 12 UTC'ye kadar geçerli Tahmin
Rüzgar kuzey/kuzeybatıdan 16 kt
Görüş mesafesi 10 km veya daha fazla
2500 ft yükseklikte az bulutlu
Geçici
ayın 01'si saat 06 UTC'den ayın 01'si saat 13 UTC'ye kadar
Rüzgar kuzey/kuzeybatıdan 17 kt ve 27 kt'a kadar ani rüzgarlar

TAF: RJOK 010505Z 0106/0212 33016KT 9999 FEW025 TEMPO 0106/0113 33017G27KT

4.000'den fazla havaalanı için hava durumu gözlemleri ve tahminleri (METAR ve TAF raporları).

Kullanılabilir istasyonlar harita üzerinde sarı ve kırmızı noktalarla gösterilir.

İstasyonun adını görmek için fareyi noktanın üzerinde gezdirin.

Sonrasında hava gözlem ve tahminlerini görmek için tıklayın.

Haritayı değiştirmek için: yaklaştırmak için siyah artı işaretli yeşil düğmeye ve uzaklaştırmak için de eksi işaretli düğmeye hızla tıklayın; bitişik haritalar için yeşil okları kullanın.


METAR-TAF: